createdAt,value
2018-06-24T00:01:44.763Z,40.83
2018-06-24T00:04:12.223Z,40.96
2018-06-24T00:06:39.680Z,41.14
2018-06-24T00:09:07.193Z,41.07
2018-06-24T00:11:34.657Z,41.34
2018-06-24T00:14:02.120Z,41.47
2018-06-24T00:16:29.679Z,41.68
2018-06-24T00:18:57.900Z,41.71
2018-06-24T00:21:25.323Z,42.05
2018-06-24T00:23:52.756Z,42.45
2018-06-24T00:26:20.309Z,42.71
2018-06-24T00:28:47.722Z,42.69
2018-06-24T00:31:15.193Z,42.67
2018-06-24T00:33:42.743Z,42.67
2018-06-24T00:36:10.236Z,42.92
2018-06-24T00:38:37.714Z,43.07
2018-06-24T00:41:05.124Z,43.23
2018-06-24T00:43:32.575Z,43.34
2018-06-24T00:46:00.088Z,43.39
2018-06-24T00:48:27.570Z,43.29
2018-06-24T00:50:54.976Z,43.27
2018-06-24T00:53:22.471Z,43.59
2018-06-24T00:55:49.937Z,43.61
2018-06-24T00:58:17.407Z,43.72
2018-06-24T01:00:44.823Z,43.78
2018-06-24T01:03:12.284Z,43.68
2018-06-24T01:05:39.712Z,43.67
2018-06-24T01:08:07.178Z,44.07
2018-06-24T01:10:34.662Z,44.17
2018-06-24T01:13:03.037Z,44.29
2018-06-24T01:15:30.565Z,44.46
2018-06-24T01:17:57.998Z,44.75
2018-06-24T01:20:25.445Z,45.05
2018-06-24T01:22:52.885Z,45.61
2018-06-24T01:25:20.366Z,45.83
2018-06-24T01:27:47.995Z,45.87
2018-06-24T01:30:15.464Z,45.81
2018-06-24T01:32:42.900Z,45.89
2018-06-24T01:35:10.388Z,46.08
2018-06-24T01:37:37.797Z,46.17
2018-06-24T01:40:05.251Z,46.16
2018-06-24T01:42:32.705Z,46.34
2018-06-24T01:45:00.171Z,46.51
2018-06-24T01:47:27.628Z,46.51
2018-06-24T01:49:55.054Z,46.44
2018-06-24T01:52:22.755Z,46.51
2018-06-24T01:54:50.555Z,46.53
2018-06-24T01:57:18.032Z,46.52
2018-06-24T01:59:45.580Z,46.39
2018-06-24T02:02:13.072Z,46.43
2018-06-24T02:04:40.476Z,46.48
2018-06-24T02:07:07.952Z,46.76
2018-06-24T02:09:35.437Z,46.79
2018-06-24T02:12:03.071Z,46.65
2018-06-24T02:14:30.491Z,46.68
2018-06-24T02:16:57.939Z,46.72
2018-06-24T02:19:25.419Z,46.79
2018-06-24T02:21:52.927Z,46.76
2018-06-24T02:24:20.425Z,46.70
2018-06-24T02:26:47.866Z,46.46
2018-06-24T02:29:15.348Z,46.38
2018-06-24T02:31:42.848Z,46.50
2018-06-24T02:34:10.263Z,46.22
2018-06-24T02:36:37.714Z,46.22
2018-06-24T02:39:05.204Z,46.10
2018-06-24T02:41:32.647Z,46.30
2018-06-24T02:44:00.059Z,46.49
2018-06-24T02:46:27.721Z,46.90
2018-06-24T02:48:55.189Z,47.06
2018-06-24T02:51:22.665Z,46.81
2018-06-24T02:53:50.071Z,47.13
2018-06-24T02:56:17.565Z,47.80
2018-06-24T02:58:45.150Z,47.57
2018-06-24T03:01:12.728Z,47.80
2018-06-24T03:03:40.209Z,47.94
2018-06-24T03:06:07.802Z,48.02
2018-06-24T03:08:35.254Z,48.03
2018-06-24T03:11:02.852Z,48.30
2018-06-24T03:13:30.272Z,48.27
2018-06-24T03:15:57.780Z,48.39
2018-06-24T03:18:25.194Z,48.25
2018-06-24T03:20:52.664Z,48.45
2018-06-24T03:23:20.090Z,48.73
2018-06-24T03:25:47.567Z,49.51
2018-06-24T03:28:15.000Z,50.12
2018-06-24T03:30:42.475Z,50.93
2018-06-24T03:33:09.936Z,51.41
2018-06-24T03:35:37.325Z,51.37
2018-06-24T03:38:04.783Z,51.51
2018-06-24T03:40:32.988Z,51.75
2018-06-24T03:43:00.534Z,52.14
2018-06-24T03:45:27.933Z,52.40
2018-06-24T03:47:55.380Z,52.40
2018-06-24T03:50:22.864Z,52.37
2018-06-24T03:52:50.410Z,52.10
2018-06-24T03:55:19.002Z,52.14
2018-06-24T03:57:46.410Z,51.95
2018-06-24T04:00:14.077Z,51.78
2018-06-24T04:02:41.528Z,51.79
2018-06-24T04:05:09.012Z,51.83
2018-06-24T04:07:36.529Z,51.91
2018-06-24T04:10:04.002Z,52.02
2018-06-24T04:12:31.476Z,51.62
2018-06-24T04:14:58.934Z,51.25
2018-06-24T04:17:26.467Z,50.50
2018-06-24T04:19:53.948Z,49.73
2018-06-24T04:22:21.593Z,50.77
2018-06-24T04:24:49.008Z,50.92
2018-06-24T04:27:16.489Z,50.84
2018-06-24T04:29:43.972Z,50.78
2018-06-24T04:32:11.381Z,49.82
2018-06-24T04:34:38.824Z,49.73
2018-06-24T04:37:06.251Z,48.86
2018-06-24T04:39:33.755Z,48.61
2018-06-24T04:42:01.160Z,48.17
2018-06-24T04:44:28.638Z,48.17
2018-06-24T04:46:56.119Z,47.84
2018-06-24T04:49:23.715Z,47.63
2018-06-24T04:51:51.168Z,47.46
2018-06-24T04:54:18.601Z,47.47
2018-06-24T04:56:46.054Z,47.15
2018-06-24T04:59:13.569Z,47.55
2018-06-24T05:01:40.989Z,47.53
2018-06-24T05:04:08.448Z,47.33
2018-06-24T05:06:35.978Z,47.31
2018-06-24T05:09:03.333Z,47.68
2018-06-24T05:11:30.771Z,47.52
2018-06-24T05:13:58.237Z,47.46
2018-06-24T05:16:25.712Z,47.88
2018-06-24T05:18:53.121Z,48.05
2018-06-24T05:21:20.602Z,48.06
2018-06-24T05:23:48.063Z,47.88
2018-06-24T05:26:15.503Z,47.76
2018-06-24T05:28:43.060Z,47.73
2018-06-24T05:31:10.450Z,47.93
2018-06-24T05:33:37.923Z,47.63
2018-06-24T05:36:05.384Z,47.51
2018-06-24T05:38:32.853Z,47.52
2018-06-24T05:41:00.299Z,46.96
2018-06-24T05:43:27.755Z,47.24
2018-06-24T05:45:55.192Z,46.36
2018-06-24T05:48:22.662Z,46.11
2018-06-24T05:50:50.246Z,46.62
2018-06-24T05:53:18.526Z,46.63
2018-06-24T05:55:46.082Z,46.58
2018-06-24T05:58:13.515Z,46.96
2018-06-24T06:00:40.960Z,46.92
2018-06-24T06:03:08.429Z,47.17
2018-06-24T06:05:36.460Z,46.87
2018-06-24T06:08:03.994Z,46.96
2018-06-24T06:10:31.475Z,46.71
2018-06-24T06:12:58.968Z,47.06
2018-06-24T06:15:26.554Z,47.02
2018-06-24T06:17:54.033Z,46.86
2018-06-24T06:20:21.477Z,46.99
2018-06-24T06:22:50.269Z,46.83
2018-06-24T06:25:17.749Z,46.67
2018-06-24T06:27:45.159Z,46.90
2018-06-24T06:30:12.615Z,47.06
2018-06-24T06:32:40.069Z,46.79
2018-06-24T06:35:07.520Z,46.75
2018-06-24T06:37:35.107Z,46.73
2018-06-24T06:40:02.543Z,46.68
2018-06-24T06:42:30.014Z,47.19
2018-06-24T06:44:57.638Z,47.22
2018-06-24T06:47:25.028Z,47.35
2018-06-24T06:49:52.463Z,46.98
2018-06-24T06:52:19.983Z,46.68
2018-06-24T06:54:47.427Z,46.10
2018-06-24T06:57:14.823Z,46.06
2018-06-24T06:59:42.308Z,46.18
2018-06-24T07:02:09.764Z,45.59
2018-06-24T07:04:37.762Z,45.51
2018-06-24T07:07:05.244Z,45.12
2018-06-24T07:09:32.742Z,45.19
2018-06-24T07:12:00.225Z,45.19
2018-06-24T07:14:27.987Z,45.25
2018-06-24T07:16:55.532Z,45.18
2018-06-24T07:19:23.040Z,45.17
2018-06-24T07:21:50.534Z,45.28
2018-06-24T07:24:19.764Z,45.71
2018-06-24T07:26:47.657Z,45.34
2018-06-24T07:29:15.117Z,45.10
2018-06-24T07:31:42.915Z,45.18
2018-06-24T07:34:10.450Z,45.36
2018-06-24T07:36:37.888Z,44.99
2018-06-24T07:39:05.415Z,45.08
2018-06-24T07:41:33.890Z,45.05
2018-06-24T07:44:01.340Z,45.00
2018-06-24T07:46:29.057Z,44.71
2018-06-24T07:48:56.461Z,44.55
2018-06-24T07:51:24.146Z,45.27
2018-06-24T07:53:51.576Z,44.73
2018-06-24T07:56:19.963Z,43.48
2018-06-24T07:58:47.390Z,42.51
2018-06-24T08:01:14.842Z,42.33
2018-06-24T08:03:42.308Z,42.31
2018-06-24T08:06:09.768Z,42.65
2018-06-24T08:08:37.236Z,42.85
2018-06-24T08:11:04.713Z,43.14
2018-06-24T08:13:32.144Z,43.33
2018-06-24T08:15:59.657Z,43.44
2018-06-24T08:18:27.120Z,43.36
2018-06-24T08:20:54.600Z,43.73
2018-06-24T08:23:22.239Z,43.80
2018-06-24T08:25:49.715Z,43.46
2018-06-24T08:28:17.169Z,42.70
2018-06-24T08:30:44.581Z,41.26
2018-06-24T08:33:12.056Z,40.23
2018-06-24T08:35:39.704Z,39.18
2018-06-24T08:38:07.147Z,38.70
2018-06-24T08:40:34.563Z,38.64
2018-06-24T08:43:02.003Z,38.32
2018-06-24T08:45:29.410Z,38.00
2018-06-24T08:47:56.883Z,38.22
2018-06-24T08:50:24.440Z,38.25
2018-06-24T08:52:51.952Z,38.69
2018-06-24T08:55:19.398Z,39.40
2018-06-24T08:57:47.078Z,40.04
2018-06-24T09:00:14.557Z,40.40
2018-06-24T09:02:42.054Z,40.52
2018-06-24T09:05:09.539Z,40.60
2018-06-24T09:07:37.037Z,40.31
2018-06-24T09:10:04.467Z,39.69
2018-06-24T09:12:31.935Z,39.86
2018-06-24T09:14:59.412Z,39.18
2018-06-24T09:17:26.994Z,39.55
2018-06-24T09:19:54.400Z,39.48
2018-06-24T09:22:21.851Z,38.28
2018-06-24T09:24:49.287Z,38.24
2018-06-24T09:27:16.821Z,38.60
2018-06-24T09:29:44.293Z,38.30
2018-06-24T09:32:11.820Z,38.25
2018-06-24T09:34:39.345Z,38.48
2018-06-24T09:37:06.762Z,38.33
2018-06-24T09:39:34.247Z,38.59
2018-06-24T09:42:01.698Z,38.46
2018-06-24T09:44:29.103Z,38.93
2018-06-24T09:46:56.602Z,39.21
2018-06-24T09:49:24.040Z,38.67
2018-06-24T09:51:51.569Z,37.59
2018-06-24T09:54:19.084Z,37.37
2018-06-24T09:56:46.584Z,37.46
2018-06-24T09:59:14.030Z,36.89
2018-06-24T10:01:41.516Z,36.22
2018-06-24T10:04:08.971Z,36.38
2018-06-24T10:06:36.406Z,36.69
2018-06-24T10:09:03.886Z,37.12
2018-06-24T10:11:31.392Z,35.77
2018-06-24T10:13:58.912Z,34.72
2018-06-24T10:16:26.408Z,34.69
2018-06-24T10:18:53.994Z,34.55
2018-06-24T10:21:21.333Z,35.39
2018-06-24T10:23:48.782Z,34.80
2018-06-24T10:26:16.404Z,34.56
2018-06-24T10:28:43.841Z,33.95
2018-06-24T10:31:11.340Z,34.41
2018-06-24T10:33:38.757Z,34.37
2018-06-24T10:36:06.238Z,33.96
2018-06-24T10:38:33.771Z,33.55
2018-06-24T10:41:01.237Z,33.24
2018-06-24T10:43:28.675Z,33.40
2018-06-24T10:45:56.725Z,34.05
2018-06-24T10:48:24.142Z,32.49
2018-06-24T10:50:51.593Z,32.75
2018-06-24T10:53:19.094Z,33.44
2018-06-24T10:55:46.496Z,33.33
2018-06-24T10:58:13.941Z,33.24
2018-06-24T11:00:40.917Z,32.16
2018-06-24T11:03:08.369Z,32.17
2018-06-24T11:05:36.588Z,32.14
2018-06-24T11:08:04.033Z,31.43
2018-06-24T11:10:31.537Z,31.61
2018-06-24T11:12:59.047Z,31.35
2018-06-24T11:15:26.725Z,31.38
2018-06-24T11:17:54.409Z,31.49
2018-06-24T11:20:21.878Z,31.05
2018-06-24T11:22:49.396Z,30.97
2018-06-24T11:25:16.465Z,30.72
2018-06-24T11:27:43.466Z,31.25
2018-06-24T11:30:10.431Z,31.43
2018-06-24T11:32:38.382Z,32.38
2018-06-24T11:35:06.045Z,31.96
2018-06-24T11:37:33.524Z,31.44
2018-06-24T11:40:01.012Z,31.47
2018-06-24T11:42:28.533Z,31.57
2018-06-24T11:44:55.973Z,30.48
2018-06-24T11:47:23.440Z,30.04
2018-06-24T11:49:50.885Z,30.80
2018-06-24T11:52:18.489Z,31.17
2018-06-24T11:54:45.956Z,30.52
2018-06-24T11:57:13.727Z,30.49
2018-06-24T11:59:41.491Z,30.60
2018-06-24T12:02:09.079Z,30.46
2018-06-24T12:04:36.649Z,30.05
2018-06-24T12:07:04.136Z,30.82
2018-06-24T12:09:31.819Z,30.11
2018-06-24T12:12:00.388Z,29.57
2018-06-24T12:14:27.894Z,29.51
2018-06-24T12:16:55.396Z,30.23
2018-06-24T12:19:22.838Z,30.30
2018-06-24T12:21:50.229Z,29.73
2018-06-24T12:24:17.975Z,29.95
2018-06-24T12:26:45.461Z,30.20
2018-06-24T12:29:12.901Z,29.78
2018-06-24T12:31:39.851Z,29.47
2018-06-24T12:34:06.897Z,29.15
2018-06-24T12:36:33.902Z,29.15
2018-06-24T12:39:00.971Z,29.20
2018-06-24T12:41:28.030Z,29.04
2018-06-24T12:43:55.034Z,29.12
2018-06-24T12:46:22.053Z,29.37
2018-06-24T12:48:49.062Z,28.98
2018-06-24T12:51:16.030Z,29.19
2018-06-24T12:53:42.981Z,28.81
2018-06-24T12:56:09.959Z,28.44
2018-06-24T12:58:37.389Z,28.42
2018-06-24T13:01:04.856Z,27.41
2018-06-24T13:03:32.392Z,26.96
2018-06-24T13:05:59.992Z,28.10
2018-06-24T13:08:27.459Z,28.56
2018-06-24T13:10:54.869Z,28.82
2018-06-24T13:13:22.303Z,28.13
2018-06-24T13:15:49.783Z,28.92
2018-06-24T13:18:17.316Z,29.08
2018-06-24T13:20:44.768Z,29.82
2018-06-24T13:23:12.192Z,30.33
2018-06-24T13:25:39.639Z,30.56
2018-06-24T13:28:07.095Z,30.36
2018-06-24T13:30:34.664Z,30.07
2018-06-24T13:33:02.273Z,30.62
2018-06-24T13:35:29.751Z,31.72
2018-06-24T13:37:57.174Z,32.03
2018-06-24T13:40:24.620Z,32.32
2018-06-24T13:42:52.057Z,32.35
2018-06-24T13:45:19.652Z,33.27
2018-06-24T13:47:47.131Z,33.25
2018-06-24T13:50:14.573Z,33.78
2018-06-24T13:52:42.035Z,33.96
2018-06-24T13:55:09.534Z,33.99
2018-06-24T14:00:11.450Z,34.22
2018-06-24T14:02:39.007Z,34.55
2018-06-24T14:05:06.487Z,35.38
2018-06-24T14:07:33.962Z,35.60
2018-06-24T14:10:01.456Z,36.26
2018-06-24T14:12:28.932Z,37.33
2018-06-24T14:14:56.406Z,38.30
2018-06-24T14:17:23.922Z,38.93
2018-06-24T14:19:51.433Z,40.06
2018-06-24T14:22:18.931Z,41.09
2018-06-24T14:24:46.427Z,41.66
2018-06-24T14:27:14.184Z,42.18
2018-06-24T14:29:41.695Z,42.32
2018-06-24T14:32:09.227Z,42.36
2018-06-24T14:34:36.653Z,43.16
2018-06-24T14:37:04.209Z,43.22
2018-06-24T14:39:31.661Z,43.62
2018-06-24T14:41:59.364Z,44.97
2018-06-24T14:44:26.848Z,45.66
2018-06-24T14:46:54.375Z,45.69
2018-06-24T14:49:22.204Z,45.10
2018-06-24T14:51:49.797Z,45.55
2018-06-24T14:54:18.810Z,47.54
2018-06-24T14:56:46.285Z,48.43
2018-06-24T14:59:13.930Z,49.13
2018-06-24T15:01:41.428Z,49.96
2018-06-24T15:04:08.915Z,49.77
2018-06-24T15:06:36.391Z,49.91
2018-06-24T15:09:03.924Z,47.92
2018-06-24T15:11:31.353Z,47.58
2018-06-24T15:13:58.865Z,47.24
2018-06-24T15:16:26.515Z,48.69
2018-06-24T15:18:54.037Z,50.23
2018-06-24T15:21:21.622Z,51.96
2018-06-24T15:23:49.081Z,52.46
2018-06-24T15:26:16.741Z,51.95
2018-06-24T15:28:44.261Z,51.97
2018-06-24T15:31:12.001Z,51.68
2018-06-24T15:33:39.704Z,51.69
2018-06-24T15:36:07.196Z,51.20
2018-06-24T15:38:34.659Z,51.45
2018-06-24T15:41:02.325Z,52.35
2018-06-24T15:43:29.959Z,53.43
2018-06-24T15:45:57.750Z,52.80
2018-06-24T15:48:25.373Z,51.75
2018-06-24T15:50:52.822Z,50.31
2018-06-24T15:53:20.292Z,49.53
2018-06-24T15:55:48.783Z,49.83
2018-06-24T15:58:16.292Z,49.65
2018-06-24T16:00:43.840Z,49.92
2018-06-24T16:03:11.322Z,51.40
2018-06-24T16:05:38.805Z,51.25
2018-06-24T16:08:06.366Z,51.61
2018-06-24T16:10:33.822Z,50.70
2018-06-24T16:13:01.278Z,50.52
2018-06-24T16:15:28.723Z,51.41
2018-06-24T16:17:57.010Z,51.29
2018-06-24T16:20:24.503Z,51.85
2018-06-24T16:22:51.921Z,51.51
2018-06-24T16:25:19.408Z,50.59
2018-06-24T16:27:46.870Z,50.48
2018-06-24T16:30:14.329Z,50.87
2018-06-24T16:32:41.819Z,52.69
2018-06-24T16:35:09.269Z,53.17
2018-06-24T16:37:36.729Z,50.96
2018-06-24T16:40:04.150Z,49.71
2018-06-24T16:42:31.603Z,49.27
2018-06-24T16:44:59.089Z,46.94
2018-06-24T16:47:26.525Z,47.16
2018-06-24T16:49:54.069Z,48.04
2018-06-24T16:52:21.489Z,49.93
2018-06-24T16:54:49.061Z,50.73
2018-06-24T16:57:16.632Z,51.48
2018-06-24T16:59:44.093Z,49.66
2018-06-24T17:02:11.524Z,49.26
2018-06-24T17:04:39.021Z,47.50
2018-06-24T17:07:07.110Z,46.77
2018-06-24T17:09:34.546Z,47.15
2018-06-24T17:12:02.036Z,48.03
2018-06-24T17:14:29.524Z,47.81
2018-06-24T17:16:56.975Z,48.19
2018-06-24T17:19:24.470Z,48.83
2018-06-24T17:21:51.932Z,49.00
2018-06-24T17:24:19.481Z,49.61
2018-06-24T17:26:46.950Z,50.16
2018-06-24T17:29:14.405Z,50.47
2018-06-24T17:31:41.895Z,50.28
2018-06-24T17:34:10.411Z,50.80
2018-06-24T17:36:38.006Z,51.16
2018-06-24T17:39:06.020Z,51.21
2018-06-24T17:41:33.448Z,51.56
2018-06-24T17:44:00.916Z,51.71
2018-06-24T17:46:29.391Z,51.83
2018-06-24T17:48:56.899Z,51.26
2018-06-24T17:51:24.424Z,51.53
2018-06-24T17:53:52.032Z,51.74
2018-06-24T17:56:19.512Z,51.70
2018-06-24T17:58:46.935Z,51.53
2018-06-24T18:01:14.340Z,52.00
2018-06-24T18:03:41.888Z,51.82
2018-06-24T18:06:09.446Z,52.02
2018-06-24T18:08:36.969Z,52.51
2018-06-24T18:11:04.472Z,52.67
2018-06-24T18:13:32.031Z,52.18
2018-06-24T18:15:59.498Z,51.73
2018-06-24T18:18:26.957Z,51.96
2018-06-24T18:20:54.482Z,52.00
2018-06-24T18:23:21.956Z,51.34
2018-06-24T18:25:49.387Z,51.94
2018-06-24T18:28:16.938Z,51.98
2018-06-24T18:30:44.418Z,52.41
2018-06-24T18:33:12.052Z,53.61
2018-06-24T18:35:39.552Z,54.64
2018-06-24T18:38:06.989Z,55.32
2018-06-24T18:40:34.422Z,54.90
2018-06-24T18:43:02.110Z,55.03
2018-06-24T18:45:29.582Z,55.83
2018-06-24T18:47:57.097Z,56.22
2018-06-24T18:50:24.544Z,56.23
2018-06-24T18:52:51.989Z,56.37
2018-06-24T18:55:19.565Z,56.77
2018-06-24T18:57:47.044Z,57.29
2018-06-24T19:00:14.541Z,57.02
2018-06-24T19:02:42.163Z,55.79
2018-06-24T19:05:09.548Z,55.13
2018-06-24T19:07:37.017Z,55.50
2018-06-24T19:10:04.701Z,55.24
2018-06-24T19:12:32.164Z,55.52
2018-06-24T19:15:00.428Z,56.08
2018-06-24T19:17:27.919Z,56.40
2018-06-24T19:19:55.457Z,56.34
2018-06-24T19:22:22.921Z,56.58
2018-06-24T19:24:50.349Z,56.61
2018-06-24T19:27:17.761Z,57.05
2018-06-24T19:29:45.459Z,57.38
2018-06-24T19:32:12.937Z,57.37
2018-06-24T19:34:40.405Z,57.69
2018-06-24T19:37:07.918Z,57.91
2018-06-24T19:39:35.431Z,58.37
2018-06-24T19:42:02.892Z,58.24
2018-06-24T19:44:30.344Z,57.49
2018-06-24T19:46:57.807Z,54.87
2018-06-24T19:49:25.306Z,51.96
2018-06-24T19:51:52.767Z,50.99
2018-06-24T19:54:20.283Z,50.02
2018-06-24T19:56:47.776Z,49.59
2018-06-24T19:59:15.173Z,49.37
2018-06-24T20:01:42.673Z,48.54
2018-06-24T20:04:10.102Z,48.16
2018-06-24T20:06:37.696Z,48.07
2018-06-24T20:09:05.289Z,48.00
2018-06-24T20:11:32.728Z,47.65
2018-06-24T20:14:00.199Z,47.66
2018-06-24T20:16:27.848Z,47.68
2018-06-24T20:18:55.971Z,47.69
2018-06-24T20:21:23.416Z,47.68
2018-06-24T20:23:50.882Z,47.91
2018-06-24T20:26:19.386Z,48.05
2018-06-24T20:28:46.883Z,48.15
2018-06-24T20:31:14.360Z,48.38
2018-06-24T20:33:41.894Z,47.32
2018-06-24T20:36:09.487Z,46.39
2018-06-24T20:38:37.025Z,45.77
2018-06-24T20:41:04.492Z,45.27
2018-06-24T20:43:31.922Z,44.68
2018-06-24T20:45:59.369Z,44.41
2018-06-24T20:48:26.787Z,44.63
2018-06-24T20:50:54.313Z,44.62
2018-06-24T20:53:21.694Z,45.05
2018-06-24T20:55:49.105Z,45.50
2018-06-24T20:58:16.593Z,45.23
2018-06-24T21:00:44.056Z,45.37
2018-06-24T21:03:11.515Z,46.25
2018-06-24T21:05:38.967Z,47.19
2018-06-24T21:08:06.441Z,47.55
2018-06-24T21:10:33.858Z,47.78
2018-06-24T21:13:01.343Z,47.70
2018-06-24T21:15:28.775Z,47.67
2018-06-24T21:17:56.391Z,47.60
2018-06-24T21:20:23.956Z,47.51
2018-06-24T21:22:51.395Z,47.59
2018-06-24T21:25:18.876Z,47.33
2018-06-24T21:27:46.415Z,47.52
2018-06-24T21:30:13.937Z,47.37
2018-06-24T21:32:41.408Z,47.60
2018-06-24T21:35:08.848Z,47.38
2018-06-24T21:37:36.299Z,47.33
2018-06-24T21:40:03.839Z,47.29
2018-06-24T21:42:31.322Z,47.21
2018-06-24T21:44:58.781Z,47.22
2018-06-24T21:47:26.348Z,47.28
2018-06-24T21:49:53.784Z,47.32
2018-06-24T21:52:21.236Z,47.47
2018-06-24T21:54:48.740Z,47.48
2018-06-24T21:57:16.225Z,47.43
2018-06-24T21:59:43.646Z,47.50
2018-06-24T22:02:11.154Z,47.63
2018-06-24T22:04:38.610Z,47.83
2018-06-24T22:07:06.027Z,48.04
2018-06-24T22:09:33.546Z,48.23
2018-06-24T22:12:01.021Z,48.47
2018-06-24T22:14:28.471Z,48.69
2018-06-24T22:16:56.020Z,48.66
2018-06-24T22:19:23.514Z,48.64
2018-06-24T22:21:50.993Z,48.79
2018-06-24T22:24:18.396Z,48.80
2018-06-24T22:26:45.874Z,48.64
2018-06-24T22:29:13.307Z,48.63
2018-06-24T22:31:40.726Z,48.62
2018-06-24T22:34:08.208Z,48.52
2018-06-24T22:36:35.771Z,48.27
2018-06-24T22:39:03.170Z,48.46
2018-06-24T22:41:30.624Z,49.30
2018-06-24T22:43:58.080Z,50.06
2018-06-24T22:46:25.490Z,49.59
2018-06-24T22:48:52.903Z,50.19
2018-06-24T22:51:20.314Z,50.30
2018-06-24T22:53:47.847Z,50.85
2018-06-24T22:56:15.291Z,51.76
2018-06-24T22:58:42.815Z,52.36
2018-06-24T23:01:10.315Z,53.01
2018-06-24T23:03:37.764Z,52.94
2018-06-24T23:06:05.199Z,53.39
2018-06-24T23:08:32.701Z,53.52
2018-06-24T23:11:00.126Z,53.31
2018-06-24T23:13:27.567Z,53.41
2018-06-24T23:15:55.010Z,53.59
2018-06-24T23:18:22.454Z,53.49
2018-06-24T23:20:49.985Z,52.74
2018-06-24T23:23:17.504Z,52.37
2018-06-24T23:25:45.049Z,52.77
2018-06-24T23:28:12.540Z,53.21
2018-06-24T23:30:39.976Z,53.26
2018-06-24T23:33:07.447Z,53.33
2018-06-24T23:35:34.898Z,53.28
2018-06-24T23:38:02.318Z,53.28
2018-06-24T23:40:29.810Z,53.71
2018-06-24T23:42:57.249Z,53.96
2018-06-24T23:45:24.710Z,54.07
2018-06-24T23:47:52.167Z,54.08
2018-06-24T23:50:19.575Z,54.07
2018-06-24T23:52:47.044Z,53.92
2018-06-24T23:55:14.744Z,54.51
2018-06-24T23:57:42.218Z,54.98
